Terminal Aerodrome Forecast
Issued by NWS Pittsburgh, PA

Home | Current Version | Previous Version | Text Only | Print | Product List | Glossary On
Versions: 1 2 3 4 5 6 7 8 9 10 11 12 13 14 15 16 17 18 19 20 21 22 23 24 25 26 27 28 29 30 31
000
FTUS41 KPBZ 291720
TAFPIT
TAF
KPIT 291720Z 2918/3024 17010KT P6SM SCT040
     FM292000 18008KT P6SM VCTS BKN040CB
     FM292300 18005KT P6SM BKN100
     FM301400 22005KT P6SM BKN100=

USA.gov is the U.S. government's official web portal to all federal, state and local government web resources and services.